createdAt,value
2023-02-27T00:00:48.341Z,100239
2023-02-27T00:10:48.460Z,100252
2023-02-27T00:20:48.883Z,100260
2023-02-27T00:30:49.002Z,100272
2023-02-27T00:50:49.440Z,100297
2023-02-27T01:00:49.667Z,100298
2023-02-27T01:10:49.830Z,100309
2023-02-27T01:20:49.989Z,100321
2023-02-27T01:30:50.232Z,100325
2023-02-27T01:40:50.495Z,100331
2023-02-27T01:50:50.619Z,100334
2023-02-27T02:00:51.121Z,100326
2023-02-27T02:10:51.360Z,100336
2023-02-27T02:20:51.572Z,100346
2023-02-27T02:30:51.624Z,100357
2023-02-27T02:40:51.790Z,100371
2023-02-27T03:00:52.274Z,100389
2023-02-27T03:10:52.279Z,100394
2023-02-27T03:20:52.471Z,100396
2023-02-27T03:30:52.780Z,100408
2023-02-27T03:50:53.143Z,100424
2023-02-27T04:00:53.367Z,100427
2023-02-27T04:10:53.574Z,100440
2023-02-27T04:20:53.821Z,100438
2023-02-27T04:30:54.296Z,100446
2023-02-27T04:40:54.289Z,100460
2023-02-27T04:50:54.576Z,100465
2023-02-27T05:00:54.825Z,100474
2023-02-27T05:10:55.063Z,100473
2023-02-27T05:20:55.311Z,100490
2023-02-27T05:30:55.448Z,100511
2023-02-27T05:50:55.902Z,100535
2023-02-27T06:00:56.001Z,100547
2023-02-27T06:10:56.203Z,100555
2023-02-27T06:20:56.448Z,100569
2023-02-27T06:40:56.757Z,100600
2023-02-27T06:50:56.880Z,100623
2023-02-27T07:00:57.097Z,100642
2023-02-27T07:10:58.780Z,100658
2023-02-27T07:20:57.522Z,100661
2023-02-27T07:30:57.782Z,100664
2023-02-27T07:40:58.008Z,100665
2023-02-27T08:00:58.700Z,100685
2023-02-27T08:10:58.867Z,100692
2023-02-27T08:30:59.585Z,100692
2023-02-27T08:40:59.925Z,100712
2023-02-27T08:51:00.305Z,100736
2023-02-27T09:01:00.712Z,100751
2023-02-27T09:11:01.075Z,100773
2023-02-27T09:21:01.422Z,100766
2023-02-27T09:31:01.826Z,100772
2023-02-27T09:41:02.253Z,100766
2023-02-27T09:51:02.595Z,100776
2023-02-27T10:01:02.968Z,100770
2023-02-27T10:11:03.324Z,100770
2023-02-27T10:21:03.753Z,100773
2023-02-27T10:31:04.099Z,100772
2023-02-27T10:41:04.506Z,100774
2023-02-27T10:51:05.006Z,100767
2023-02-27T11:01:05.426Z,100772
2023-02-27T11:11:05.755Z,100773
2023-02-27T11:21:06.188Z,100773
2023-02-27T11:31:06.664Z,100783
2023-02-27T11:41:07.075Z,100781
2023-02-27T11:51:07.737Z,100786
2023-02-27T12:01:08.039Z,100786
2023-02-27T12:11:14.055Z,100783
2023-02-27T12:21:08.943Z,100779
2023-02-27T12:31:09.785Z,100796
2023-02-27T12:41:09.949Z,100797
2023-02-27T12:51:10.489Z,100802
2023-02-27T13:01:11.027Z,100803
2023-02-27T13:11:11.512Z,100814
2023-02-27T13:21:12.384Z,100812
2023-02-27T13:31:12.590Z,100811
2023-02-27T13:41:13.246Z,100812
2023-02-27T13:51:13.842Z,100815
2023-02-27T14:01:14.153Z,100818
2023-02-27T14:21:15.050Z,100815
2023-02-27T14:31:15.601Z,100814
2023-02-27T14:41:16.053Z,100822
2023-02-27T14:51:16.627Z,100830
2023-02-27T15:01:17.197Z,100828
2023-02-27T15:11:17.640Z,100844
2023-02-27T15:21:18.232Z,100855
2023-02-27T15:31:20.836Z,100881
2023-02-27T15:41:19.278Z,100894
2023-02-27T15:51:19.937Z,100903
2023-02-27T16:01:20.839Z,100913
2023-02-27T16:11:20.659Z,100917
2023-02-27T16:21:21.140Z,100942
2023-02-27T16:31:21.813Z,100956
2023-02-27T16:41:22.322Z,100977
2023-02-27T16:51:22.522Z,100991
2023-02-27T17:01:22.671Z,101017
2023-02-27T17:11:22.918Z,101018
2023-02-27T17:21:23.377Z,101041
2023-02-27T17:31:25.438Z,101049
2023-02-27T17:41:23.900Z,101059
2023-02-27T18:01:24.453Z,101070
2023-02-27T18:11:24.424Z,101087
2023-02-27T18:21:24.987Z,101110
2023-02-27T18:31:24.845Z,101128
2023-02-27T18:51:25.339Z,101132
2023-02-27T19:01:27.537Z,101135
2023-02-27T19:11:27.594Z,101149
2023-02-27T19:21:28.251Z,101172
2023-02-27T19:31:25.839Z,101188
2023-02-27T19:41:27.900Z,101209
2023-02-27T19:51:25.747Z,101221
2023-02-27T20:01:25.855Z,101213
2023-02-27T20:11:25.939Z,101219
2023-02-27T20:21:28.330Z,101251
2023-02-27T20:31:26.731Z,101267
2023-02-27T20:41:29.321Z,101264
2023-02-27T20:51:27.034Z,101258
2023-02-27T21:01:27.825Z,101298
2023-02-27T21:11:27.929Z,101294
2023-02-27T21:21:27.763Z,101303
2023-02-27T21:31:28.044Z,101311
2023-02-27T21:41:28.006Z,101327
2023-02-27T21:51:39.600Z,101309
2023-02-27T22:01:28.233Z,101312
2023-02-27T22:11:28.230Z,101321
2023-02-27T22:21:28.462Z,101303
2023-02-27T22:31:28.591Z,101307
2023-02-27T22:51:28.917Z,101304
2023-02-27T23:01:28.954Z,101311
2023-02-27T23:11:29.079Z,101326
2023-02-27T23:21:29.133Z,101323
2023-02-27T23:31:29.351Z,101331
2023-02-27T23:41:29.607Z,101334
2023-02-27T23:51:30.495Z,101329
